createdAt,value
2023-01-31T00:01:50.343Z,54.59
2023-01-31T00:04:17.200Z,54.12
2023-01-31T00:06:50.791Z,54.71
2023-01-31T00:09:17.808Z,54.97
2023-01-31T00:11:44.699Z,54.23
2023-01-31T00:14:19.247Z,54.46
2023-01-31T00:16:48.185Z,55.13
2023-01-31T00:19:15.203Z,54.40
2023-01-31T00:21:43.781Z,55.08
2023-01-31T00:24:12.882Z,54.68
2023-01-31T00:26:39.926Z,54.45
2023-01-31T00:29:06.899Z,54.71
2023-01-31T00:31:35.331Z,55.06
2023-01-31T00:34:03.951Z,54.87
2023-01-31T00:36:34.829Z,55.05
2023-01-31T00:39:05.445Z,55.04
2023-01-31T00:41:33.155Z,55.62
2023-01-31T00:44:00.824Z,55.26
2023-01-31T00:46:28.229Z,54.90
2023-01-31T00:48:56.663Z,55.44
2023-01-31T00:51:26.995Z,54.92
2023-01-31T00:53:54.852Z,55.56
2023-01-31T00:56:24.487Z,55.83
2023-01-31T00:58:51.920Z,55.90
2023-01-31T01:01:22.542Z,55.53
2023-01-31T01:03:49.508Z,56.01
2023-01-31T01:06:16.882Z,56.01
2023-01-31T01:08:46.135Z,55.94
2023-01-31T01:11:16.784Z,55.64
2023-01-31T01:13:45.230Z,55.90
2023-01-31T01:16:16.945Z,56.10
2023-01-31T01:18:46.449Z,55.81
2023-01-31T01:21:17.169Z,56.21
2023-01-31T01:23:49.739Z,56.02
2023-01-31T01:26:20.175Z,56.56
2023-01-31T01:28:48.796Z,55.95
2023-01-31T01:31:18.177Z,56.69
2023-01-31T01:33:46.986Z,56.42
2023-01-31T01:36:18.028Z,55.97
2023-01-31T01:38:46.262Z,56.23
2023-01-31T01:41:14.241Z,56.16
2023-01-31T01:43:47.884Z,56.44
2023-01-31T01:46:22.725Z,56.49
2023-01-31T01:48:54.736Z,56.03
2023-01-31T01:51:23.302Z,56.04
2023-01-31T01:53:59.055Z,56.24
2023-01-31T01:56:32.357Z,56.45
2023-01-31T01:59:06.897Z,56.19
2023-01-31T02:01:38.243Z,56.28
2023-01-31T02:04:13.089Z,56.58
2023-01-31T02:06:41.165Z,56.95
2023-01-31T02:09:20.240Z,57.29
2023-01-31T02:11:47.992Z,56.53
2023-01-31T02:14:16.862Z,57.12
2023-01-31T02:16:43.750Z,56.84
2023-01-31T02:19:22.447Z,57.76
2023-01-31T02:22:14.282Z,57.77
2023-01-31T02:25:57.137Z,57.42
2023-01-31T02:29:17.591Z,57.61
2023-01-31T02:32:17.662Z,57.71
2023-01-31T02:34:55.954Z,57.75
2023-01-31T02:37:33.103Z,57.42
2023-01-31T02:40:16.772Z,57.55
2023-01-31T02:42:58.355Z,57.92
2023-01-31T02:45:39.200Z,57.45
2023-01-31T02:48:19.387Z,57.91
2023-01-31T02:51:00.316Z,57.99
2023-01-31T02:53:33.874Z,58.01
2023-01-31T02:56:17.982Z,58.50
2023-01-31T02:58:54.984Z,58.23
2023-01-31T03:01:28.871Z,58.35
2023-01-31T03:04:03.243Z,58.04
2023-01-31T03:07:02.514Z,57.73
2023-01-31T03:09:51.408Z,57.90
2023-01-31T03:12:49.188Z,57.70
2023-01-31T03:16:02.095Z,58.18
2023-01-31T03:18:37.042Z,58.28
2023-01-31T03:21:10.218Z,58.34
2023-01-31T03:23:40.975Z,57.90
2023-01-31T03:26:09.611Z,58.19
2023-01-31T03:28:42.250Z,58.38
2023-01-31T03:31:18.938Z,58.27
2023-01-31T03:33:52.454Z,57.75
2023-01-31T03:36:33.149Z,57.88
2023-01-31T03:39:13.752Z,57.84
2023-01-31T03:41:56.829Z,57.60
2023-01-31T03:44:36.166Z,57.25
2023-01-31T03:47:11.445Z,57.63
2023-01-31T03:49:42.520Z,58.03
2023-01-31T03:52:18.006Z,57.21
2023-01-31T03:54:54.093Z,57.72
2023-01-31T03:57:25.299Z,57.32
2023-01-31T03:59:57.463Z,57.49
2023-01-31T04:02:33.381Z,57.61
2023-01-31T04:05:07.982Z,57.44
2023-01-31T04:07:37.421Z,57.54
2023-01-31T04:10:12.011Z,57.80
2023-01-31T04:12:39.454Z,57.75
2023-01-31T04:15:08.647Z,57.54
2023-01-31T04:17:35.899Z,57.80
2023-01-31T04:20:04.205Z,57.59
2023-01-31T04:22:31.069Z,57.25
2023-01-31T04:24:59.385Z,57.67
2023-01-31T04:27:26.329Z,57.55
2023-01-31T04:29:53.289Z,57.67
2023-01-31T04:32:20.171Z,57.33
2023-01-31T04:34:47.059Z,56.97
2023-01-31T04:37:14.002Z,56.96
2023-01-31T04:39:40.856Z,57.24
2023-01-31T04:42:09.542Z,57.28
2023-01-31T04:44:36.616Z,57.01
2023-01-31T04:47:03.757Z,57.09
2023-01-31T04:49:30.630Z,57.15
2023-01-31T04:51:57.599Z,56.60
2023-01-31T04:54:24.602Z,56.62
2023-01-31T04:56:51.513Z,57.15
2023-01-31T04:59:19.703Z,56.51
2023-01-31T05:01:46.671Z,56.68
2023-01-31T05:04:13.554Z,56.88
2023-01-31T05:06:40.456Z,57.07
2023-01-31T05:09:07.805Z,56.55
2023-01-31T05:11:34.796Z,56.99
2023-01-31T05:14:01.829Z,56.94
2023-01-31T05:16:30.128Z,56.61
2023-01-31T05:18:57.092Z,56.40
2023-01-31T05:21:23.966Z,56.76
2023-01-31T05:23:50.872Z,56.88
2023-01-31T05:26:18.059Z,56.63
2023-01-31T05:28:44.929Z,56.59
2023-01-31T05:31:13.523Z,56.19
2023-01-31T05:33:41.841Z,56.20
2023-01-31T05:36:09.228Z,56.65
2023-01-31T05:38:36.095Z,56.61
2023-01-31T05:41:03.184Z,56.63
2023-01-31T05:43:30.075Z,56.59
2023-01-31T05:45:56.997Z,56.17
2023-01-31T05:48:23.930Z,56.49
2023-01-31T05:50:52.165Z,56.30
2023-01-31T05:53:19.049Z,55.82
2023-01-31T05:55:47.349Z,56.17
2023-01-31T05:58:14.179Z,56.23
2023-01-31T06:00:41.074Z,55.86
2023-01-31T06:03:09.968Z,56.16
2023-01-31T06:05:36.888Z,55.99
2023-01-31T06:08:05.275Z,55.92
2023-01-31T06:10:32.125Z,55.91
2023-01-31T06:12:59.743Z,55.66
2023-01-31T06:15:26.871Z,55.53
2023-01-31T06:17:53.716Z,55.48
2023-01-31T06:20:20.616Z,55.42
2023-01-31T06:22:47.477Z,55.75
2023-01-31T06:25:15.663Z,55.53
2023-01-31T06:27:43.054Z,55.48
2023-01-31T06:30:11.864Z,55.80
2023-01-31T06:32:38.785Z,55.57
2023-01-31T06:35:06.518Z,55.89
2023-01-31T06:37:33.502Z,56.20
2023-01-31T06:40:00.380Z,55.66
2023-01-31T06:42:28.703Z,56.25
2023-01-31T06:44:55.592Z,55.84
2023-01-31T06:47:23.375Z,55.88
2023-01-31T06:49:50.241Z,56.57
2023-01-31T06:52:17.254Z,56.26
2023-01-31T06:54:44.110Z,56.80
2023-01-31T06:57:10.945Z,56.41
2023-01-31T06:59:39.151Z,56.61
2023-01-31T07:02:06.402Z,56.82
2023-01-31T07:04:33.243Z,56.14
2023-01-31T07:07:00.179Z,56.34
2023-01-31T07:09:27.040Z,56.71
2023-01-31T07:11:53.939Z,56.50
2023-01-31T07:14:20.861Z,56.42
2023-01-31T07:16:49.079Z,56.89
2023-01-31T07:19:16.177Z,56.57
2023-01-31T07:21:44.365Z,56.95
2023-01-31T07:24:11.579Z,56.20
2023-01-31T07:26:38.479Z,56.33
2023-01-31T07:29:05.555Z,56.72
2023-01-31T07:31:32.626Z,56.46
2023-01-31T07:34:01.217Z,56.37
2023-01-31T07:36:28.224Z,56.32
2023-01-31T07:38:57.058Z,56.03
2023-01-31T07:41:25.211Z,56.21
2023-01-31T07:43:52.766Z,56.07
2023-01-31T07:46:20.677Z,56.61
2023-01-31T07:48:47.630Z,56.72
2023-01-31T07:51:15.898Z,56.18
2023-01-31T07:53:43.839Z,56.09
2023-01-31T07:56:14.404Z,56.54
2023-01-31T07:58:43.895Z,56.86
2023-01-31T08:01:34.116Z,56.37
2023-01-31T08:04:18.367Z,56.73
2023-01-31T08:06:53.328Z,56.81
2023-01-31T08:09:20.406Z,56.91
2023-01-31T08:11:47.385Z,56.65
2023-01-31T08:14:14.517Z,56.15
2023-01-31T08:16:41.784Z,56.47
2023-01-31T08:19:08.791Z,56.94
2023-01-31T08:21:35.836Z,56.51
2023-01-31T08:24:04.873Z,56.67
2023-01-31T08:26:31.856Z,56.40
2023-01-31T08:28:59.983Z,56.71
2023-01-31T08:31:28.399Z,56.54
2023-01-31T08:33:57.252Z,56.59
2023-01-31T08:36:27.527Z,56.99
2023-01-31T08:38:55.904Z,57.26
2023-01-31T08:41:26.652Z,57.30
2023-01-31T08:43:58.057Z,56.89
2023-01-31T08:46:27.925Z,56.99
2023-01-31T08:48:55.651Z,57.46
2023-01-31T08:51:23.557Z,57.46
2023-01-31T08:53:50.774Z,57.23
2023-01-31T08:56:21.086Z,57.33
2023-01-31T08:58:49.310Z,57.50
2023-01-31T09:01:19.248Z,57.68
2023-01-31T09:03:47.865Z,57.72
2023-01-31T09:06:18.076Z,57.29
2023-01-31T09:08:45.112Z,57.67
2023-01-31T09:11:17.144Z,57.86
2023-01-31T09:13:45.377Z,57.53
2023-01-31T09:16:14.988Z,57.47
2023-01-31T09:18:42.985Z,57.94
2023-01-31T09:21:12.800Z,57.53
2023-01-31T09:23:42.551Z,58.07
2023-01-31T09:26:11.303Z,57.82
2023-01-31T09:28:39.781Z,57.97
2023-01-31T09:31:10.318Z,57.94
2023-01-31T09:33:38.600Z,58.10
2023-01-31T09:36:08.133Z,58.03
2023-01-31T09:38:36.521Z,58.48
2023-01-31T09:41:14.877Z,57.75
2023-01-31T09:43:49.612Z,58.11
2023-01-31T09:46:23.871Z,58.27
2023-01-31T09:48:55.956Z,58.27
2023-01-31T09:51:24.099Z,58.39
2023-01-31T09:53:51.236Z,58.06
2023-01-31T09:56:34.834Z,58.97
2023-01-31T09:59:18.610Z,58.95
2023-01-31T10:02:04.120Z,58.68
2023-01-31T10:04:54.126Z,59.21
2023-01-31T10:07:32.037Z,59.14
2023-01-31T10:10:13.913Z,59.54
2023-01-31T10:12:47.976Z,59.47
2023-01-31T10:15:28.092Z,59.64
2023-01-31T10:18:02.258Z,59.61
2023-01-31T10:20:38.343Z,59.28
2023-01-31T10:23:13.100Z,59.85
2023-01-31T10:25:48.713Z,59.62
2023-01-31T10:28:22.044Z,59.56
2023-01-31T10:30:58.941Z,59.84
2023-01-31T10:33:38.842Z,59.37
2023-01-31T10:36:22.529Z,59.78
2023-01-31T10:39:02.741Z,59.96
2023-01-31T10:41:52.397Z,60.38
2023-01-31T10:44:27.892Z,60.22
2023-01-31T10:46:59.502Z,60.21
2023-01-31T10:49:28.181Z,59.86
2023-01-31T10:52:32.908Z,60.40
2023-01-31T10:55:18.475Z,60.23
2023-01-31T10:57:45.621Z,59.83
2023-01-31T11:00:20.866Z,59.94
2023-01-31T11:02:48.460Z,60.53
2023-01-31T11:05:20.750Z,60.24
2023-01-31T11:07:50.325Z,60.04
2023-01-31T11:10:27.298Z,60.39
2023-01-31T11:12:57.774Z,59.92
2023-01-31T11:15:29.030Z,60.79
2023-01-31T11:18:00.724Z,60.34
2023-01-31T11:20:32.251Z,60.88
2023-01-31T11:23:03.112Z,60.92
2023-01-31T11:25:33.805Z,60.87
2023-01-31T11:28:18.128Z,61.61
2023-01-31T11:30:50.428Z,61.18
2023-01-31T11:33:41.317Z,61.24
2023-01-31T11:36:11.092Z,61.49
2023-01-31T11:38:39.486Z,61.85
2023-01-31T11:41:33.722Z,61.68
2023-01-31T11:44:15.693Z,61.55
2023-01-31T11:46:48.705Z,62.33
2023-01-31T11:49:27.126Z,62.00
2023-01-31T11:51:54.438Z,61.88
2023-01-31T11:54:28.242Z,62.03
2023-01-31T11:56:56.331Z,62.07
2023-01-31T11:59:30.109Z,62.08
2023-01-31T12:02:01.309Z,61.78
2023-01-31T12:04:39.930Z,61.81
2023-01-31T12:07:23.322Z,62.24
2023-01-31T12:09:52.131Z,62.27
2023-01-31T12:12:29.909Z,61.92
2023-01-31T12:15:02.056Z,61.95
2023-01-31T12:17:34.771Z,62.71
2023-01-31T12:20:28.803Z,61.96
2023-01-31T12:23:10.034Z,61.79
2023-01-31T12:25:54.810Z,62.07
2023-01-31T12:28:37.346Z,61.79
2023-01-31T12:31:29.413Z,62.21
2023-01-31T12:34:16.737Z,62.05
2023-01-31T12:37:20.160Z,62.34
2023-01-31T12:40:24.603Z,61.95
2023-01-31T12:42:59.752Z,62.21
2023-01-31T12:45:57.868Z,62.29
2023-01-31T12:48:58.971Z,62.14
2023-01-31T12:51:44.817Z,62.48
2023-01-31T12:54:38.164Z,62.07
2023-01-31T12:57:27.526Z,62.08
2023-01-31T13:00:25.016Z,62.31
2023-01-31T13:03:25.917Z,61.65
2023-01-31T13:06:00.335Z,61.86
2023-01-31T13:08:31.408Z,61.79
2023-01-31T13:11:06.209Z,61.71
2023-01-31T13:13:42.000Z,61.38
2023-01-31T13:16:20.721Z,61.08
2023-01-31T13:18:52.274Z,61.36
2023-01-31T13:21:26.943Z,61.35
2023-01-31T13:24:00.545Z,61.30
2023-01-31T13:26:32.871Z,61.11
2023-01-31T13:29:09.945Z,61.11
2023-01-31T13:31:46.340Z,60.84
2023-01-31T13:34:22.357Z,61.11
2023-01-31T13:36:56.156Z,61.07
2023-01-31T13:39:30.648Z,61.05
2023-01-31T13:41:58.206Z,61.35
2023-01-31T13:44:25.594Z,61.31
2023-01-31T13:47:01.043Z,61.13
2023-01-31T13:49:34.991Z,61.04
2023-01-31T13:52:11.220Z,61.08
2023-01-31T13:54:46.037Z,61.02
2023-01-31T13:57:26.543Z,61.09
2023-01-31T14:00:01.102Z,61.35
2023-01-31T14:02:31.043Z,61.13
2023-01-31T14:05:27.060Z,61.29
2023-01-31T14:08:59.461Z,61.55
2023-01-31T14:11:43.005Z,61.27
2023-01-31T14:14:37.709Z,61.25
2023-01-31T14:17:06.788Z,61.06
2023-01-31T14:20:06.201Z,61.33
2023-01-31T14:22:35.310Z,61.13
2023-01-31T14:25:06.918Z,61.11
2023-01-31T14:27:46.488Z,61.24
2023-01-31T14:30:42.679Z,60.96
2023-01-31T14:33:29.014Z,60.82
2023-01-31T14:36:37.097Z,60.86
2023-01-31T14:39:46.108Z,60.89
2023-01-31T14:43:09.801Z,60.61
2023-01-31T14:46:16.935Z,60.62
2023-01-31T14:49:23.958Z,60.16
2023-01-31T14:52:21.884Z,60.20
2023-01-31T14:55:12.121Z,60.20
2023-01-31T14:57:43.068Z,59.93
2023-01-31T15:00:23.625Z,59.78
2023-01-31T15:03:03.327Z,59.55
2023-01-31T15:05:47.619Z,60.00
2023-01-31T15:08:39.758Z,59.39
2023-01-31T15:11:13.906Z,59.02
2023-01-31T15:13:49.035Z,59.02
2023-01-31T15:16:23.945Z,58.97
2023-01-31T15:18:59.947Z,59.00
2023-01-31T15:21:32.328Z,58.33
2023-01-31T15:24:02.531Z,57.85
2023-01-31T15:26:35.401Z,57.99
2023-01-31T15:29:04.682Z,57.47
2023-01-31T15:31:40.988Z,57.01
2023-01-31T15:34:20.486Z,57.13
2023-01-31T15:37:02.538Z,56.63
2023-01-31T15:39:38.522Z,56.17
2023-01-31T15:42:24.587Z,56.11
2023-01-31T15:45:11.551Z,55.84
2023-01-31T15:47:38.521Z,55.51
2023-01-31T15:50:15.581Z,55.29
2023-01-31T15:52:42.631Z,55.35
2023-01-31T15:55:14.687Z,55.10
2023-01-31T15:57:47.881Z,54.78
2023-01-31T16:00:21.787Z,54.77
2023-01-31T16:02:49.569Z,54.44
2023-01-31T16:05:22.275Z,54.23
2023-01-31T16:07:50.016Z,53.96
2023-01-31T16:10:19.182Z,53.82
2023-01-31T16:12:50.810Z,53.45
2023-01-31T16:15:23.160Z,53.49
2023-01-31T16:17:51.671Z,52.94
2023-01-31T16:20:44.276Z,52.57
2023-01-31T16:23:28.727Z,52.69
2023-01-31T16:26:06.087Z,53.02
2023-01-31T16:28:40.824Z,52.77
2023-01-31T16:31:11.551Z,52.67
2023-01-31T16:33:47.071Z,52.72
2023-01-31T16:36:18.218Z,52.81
2023-01-31T16:38:59.096Z,52.95
2023-01-31T16:41:46.469Z,52.48
2023-01-31T16:44:18.475Z,52.65
2023-01-31T16:46:48.020Z,52.37
2023-01-31T16:49:21.926Z,52.45
2023-01-31T16:51:50.066Z,52.25
2023-01-31T16:54:23.254Z,52.27
2023-01-31T16:59:49.257Z,52.26
2023-01-31T17:02:22.453Z,52.44
2023-01-31T17:04:52.869Z,52.29
2023-01-31T17:07:23.839Z,52.34
2023-01-31T17:09:56.478Z,52.13
2023-01-31T17:12:27.407Z,52.04
2023-01-31T17:15:00.191Z,51.87
2023-01-31T17:17:32.826Z,51.87
2023-01-31T17:20:00.039Z,51.69
2023-01-31T17:22:27.020Z,51.67
2023-01-31T17:24:53.944Z,51.32
2023-01-31T17:27:21.830Z,51.24
2023-01-31T17:29:50.381Z,51.10
2023-01-31T17:32:21.084Z,51.07
2023-01-31T17:34:48.875Z,51.21
2023-01-31T17:37:20.786Z,50.92
2023-01-31T17:39:50.686Z,51.13
2023-01-31T17:42:21.399Z,50.76
2023-01-31T17:44:48.296Z,51.09
2023-01-31T17:47:15.671Z,50.79
2023-01-31T17:49:45.271Z,50.81
2023-01-31T17:52:12.310Z,50.80
2023-01-31T17:54:39.420Z,50.62
2023-01-31T17:57:06.301Z,50.72
2023-01-31T17:59:33.213Z,50.53
2023-01-31T18:02:00.604Z,50.57
2023-01-31T18:04:27.545Z,50.64
2023-01-31T18:06:55.822Z,50.51
2023-01-31T18:09:22.913Z,50.75
2023-01-31T18:11:49.894Z,50.55
2023-01-31T18:14:16.995Z,50.76
2023-01-31T18:16:43.912Z,50.87
2023-01-31T18:19:11.695Z,50.49
2023-01-31T18:21:41.482Z,50.31
2023-01-31T18:24:15.244Z,50.17
2023-01-31T18:26:44.410Z,50.42
2023-01-31T18:29:19.181Z,50.19
2023-01-31T18:31:46.701Z,49.88
2023-01-31T18:34:13.627Z,49.43
2023-01-31T18:36:40.821Z,49.53
2023-01-31T18:39:07.902Z,49.47
2023-01-31T18:41:36.148Z,49.64
2023-01-31T18:44:03.205Z,49.47
2023-01-31T18:46:30.381Z,49.52
2023-01-31T18:48:57.452Z,49.65
2023-01-31T18:51:24.494Z,49.61
2023-01-31T18:53:51.398Z,49.04
2023-01-31T18:56:20.977Z,49.25
2023-01-31T18:58:50.161Z,48.86
2023-01-31T19:01:19.594Z,49.00
2023-01-31T19:03:50.044Z,48.93
2023-01-31T19:06:21.530Z,49.02
2023-01-31T19:08:50.661Z,48.69
2023-01-31T19:11:20.203Z,48.52
2023-01-31T19:13:48.888Z,48.78
2023-01-31T19:16:18.795Z,48.49
2023-01-31T19:18:46.308Z,48.52
2023-01-31T19:21:18.120Z,48.72
2023-01-31T19:23:45.839Z,48.95
2023-01-31T19:26:15.842Z,49.08
2023-01-31T19:28:43.910Z,48.42
2023-01-31T19:31:14.902Z,48.84
2023-01-31T19:33:42.269Z,48.65
2023-01-31T19:36:10.780Z,48.81
2023-01-31T19:38:38.064Z,49.34
2023-01-31T19:41:07.026Z,49.40
2023-01-31T19:43:33.949Z,49.45
2023-01-31T19:46:01.458Z,49.99
2023-01-31T19:48:30.059Z,50.14
2023-01-31T19:50:57.870Z,50.50
2023-01-31T19:53:25.715Z,50.68
2023-01-31T19:55:56.251Z,50.38
2023-01-31T19:58:30.694Z,50.70
2023-01-31T20:00:58.165Z,50.43
2023-01-31T20:03:25.333Z,50.79
2023-01-31T20:05:53.703Z,50.59
2023-01-31T20:08:20.760Z,50.61
2023-01-31T20:10:47.705Z,50.40
2023-01-31T20:13:14.610Z,50.43
2023-01-31T20:15:41.516Z,50.08
2023-01-31T20:18:08.397Z,50.16
2023-01-31T20:20:35.295Z,49.66
2023-01-31T20:23:03.792Z,49.92
2023-01-31T20:25:30.829Z,49.98
2023-01-31T20:27:57.984Z,49.57
2023-01-31T20:30:24.902Z,49.49
2023-01-31T20:32:51.812Z,49.93
2023-01-31T20:35:19.113Z,50.17
2023-01-31T20:37:46.052Z,49.94
2023-01-31T20:40:14.523Z,50.08
2023-01-31T20:42:41.610Z,49.99
2023-01-31T20:45:09.723Z,49.72
2023-01-31T20:47:36.593Z,49.77
2023-01-31T20:50:04.489Z,49.80
2023-01-31T20:52:32.866Z,49.42
2023-01-31T20:54:59.768Z,49.63
2023-01-31T20:57:28.209Z,49.47
2023-01-31T20:59:55.416Z,49.58
2023-01-31T21:02:22.505Z,49.69
2023-01-31T21:04:49.392Z,49.88
2023-01-31T21:07:17.497Z,49.69
2023-01-31T21:09:44.446Z,49.70
2023-01-31T21:12:11.479Z,49.49
2023-01-31T21:14:39.647Z,49.75
2023-01-31T21:17:06.574Z,49.34
2023-01-31T21:19:33.451Z,49.68
2023-01-31T21:22:00.311Z,49.56
2023-01-31T21:24:27.247Z,49.74
2023-01-31T21:26:54.362Z,49.64
2023-01-31T21:29:21.342Z,49.84
2023-01-31T21:31:49.800Z,49.81
2023-01-31T21:34:16.850Z,49.36
2023-01-31T21:36:45.809Z,49.09
2023-01-31T21:39:13.034Z,49.05
2023-01-31T21:41:58.757Z,49.11
2023-01-31T21:44:25.701Z,49.29
2023-01-31T21:46:53.981Z,49.67
2023-01-31T21:49:20.967Z,49.55
2023-01-31T21:51:47.868Z,49.72
2023-01-31T21:54:14.972Z,49.75
2023-01-31T21:56:41.916Z,49.71
2023-01-31T21:59:08.836Z,49.50
2023-01-31T22:01:36.634Z,49.15
2023-01-31T22:04:05.147Z,49.36
2023-01-31T22:06:38.722Z,49.44
2023-01-31T22:09:09.406Z,49.59
2023-01-31T22:11:38.584Z,49.35
2023-01-31T22:14:08.241Z,49.31
2023-01-31T22:16:36.401Z,49.57
2023-01-31T22:19:05.018Z,49.43
2023-01-31T22:21:36.291Z,49.96
2023-01-31T22:24:06.580Z,49.69
2023-01-31T22:26:38.270Z,49.45
2023-01-31T22:29:07.776Z,49.45
2023-01-31T22:31:35.592Z,49.46
2023-01-31T22:34:06.085Z,50.03
2023-01-31T22:36:34.071Z,49.74
2023-01-31T22:39:01.622Z,49.86
2023-01-31T22:41:28.875Z,49.84
2023-01-31T22:43:56.416Z,50.13
2023-01-31T22:46:26.054Z,50.27
2023-01-31T22:48:55.172Z,50.07
2023-01-31T22:51:29.180Z,50.07
2023-01-31T22:53:57.901Z,50.09
2023-01-31T22:56:28.327Z,50.60
2023-01-31T22:58:57.542Z,50.24
2023-01-31T23:01:27.558Z,50.21
2023-01-31T23:03:57.828Z,50.11
2023-01-31T23:06:27.606Z,50.61
2023-01-31T23:08:56.990Z,50.36
2023-01-31T23:11:25.067Z,50.60
2023-01-31T23:13:53.057Z,50.61
2023-01-31T23:16:46.991Z,50.72
2023-01-31T23:19:16.248Z,50.77
2023-01-31T23:21:45.070Z,50.36
2023-01-31T23:24:14.435Z,50.17
2023-01-31T23:26:41.735Z,50.41
2023-01-31T23:29:09.013Z,50.12
2023-01-31T23:31:36.254Z,50.61
2023-01-31T23:34:05.917Z,50.56
2023-01-31T23:36:33.305Z,50.42
2023-01-31T23:39:01.718Z,50.15
2023-01-31T23:41:28.641Z,50.72
2023-01-31T23:43:55.523Z,50.30
2023-01-31T23:46:22.505Z,50.32
2023-01-31T23:48:49.406Z,50.44
2023-01-31T23:51:16.314Z,50.98
2023-01-31T23:53:43.190Z,51.06
2023-01-31T23:56:11.400Z,51.03
2023-01-31T23:58:38.269Z,50.90
